Portada
METAR-TAF:

METAR-TAF

Aeropuertos :

Valence, Francia

latitud: 44-54-58N, longitud: 4-58-06E, altitud: 160 m

Observación

El informe se hizo hace 20 horas y 10 minutos, a las 15:00 UTC
Viento 20 kt del norte
Temperatura 9°C
Humedad 40%
Presión 1010 hPa
Visibilidad 10 km o más
Cielo nuboso a una altura de 7000 ft
Cielo cubierto a una altura de 15000 ft

METAR: LFLU 201500Z AUTO 35020KT 9999 BKN070 OVC150 09/M04 Q1010

Hora: 12:10 (11:10 UTC)


TAF: falta

Observaciones y pronósticos meteorológicos de más de 4000 aeropuertos (mensajes METAR y TAF).

Los puntos amarillos y rojos representan las estaciones disponibles.

Ponga el ratón en el punto deseado para ver el nombre de la estación.

Haga clic para ver las observaciones y los pronósticos meteorológicos.

Para cambiar el mapa : haga clic en los botones verdes con una cruz de color negro para hacer un zoom, en el botón verde con un guión para alejar o en las flechas verdes para mapas adyacentes.


METAR-TAF: